Ellen Essberger — CQLS — position and weather

sailwx.info

Track history (hours):
 
Tides and Currents Weather Stations Pressure Air Temp Water Temp Dewpoint Dewpoint Depression Visibility Wind Speed Wind Dir Waves Ship Positions

Ellen Essberger

Last reported at 2018-Jun-22 18:30 UTC. Time now 2018-Jun-22 18:34 UTC.
Position N 51°22' E 001°56'.

Length 118 m; draft 7.5 m.

Type: Ship (hazmat cat B). MMSI: 255805340.

Date/timePositionNaut miles runAvg speedWind from/ knotsBaromVisibWave heightAir tempDewpointWater temp
2018-Jun-22 18:30N 51°22' E 001°56'5 9.9
2018-Jun-22 18:01N 51°24' E 002°04'611.5
2018-Jun-22 17:30N 51°22' E 002°12'611.3
2018-Jun-22 17:00N 51°22' E 002°21'612.6
2018-Jun-22 16:30N 51°23' E 002°31'612.2
2018-Jun-22 15:59N 51°22' E 002°41'4 8.7
2018-Jun-22 15:30N 51°22' E 002°48'712.7
2018-Jun-22 14:58N 51°23' E 002°59'511.6
2018-Jun-22 14:30N 51°24' E 003°07'612.8
2018-Jun-22 14:01N 51°25' E 003°17'713.1
2018-Jun-22 13:30N 51°25' E 003°28'713.1
2018-Jun-22 13:00N 51°26' E 003°38'612.0
2018-Jun-22 12:30N 51°22' E 003°45'612.9
2018-Jun-22 12:00N 51°22' E 003°55'510.5
2018-Jun-22 11:31N 51°26' E 004°02'510.3
2018-Jun-22 11:01N 51°22' E 004°08'4 7.9
2018-Jun-22 10:30N 51°21' E 004°14'2 3.7
2018-Jun-22 10:00N 51°21' E 004°17'0 0.0
2018-Jun-22 09:31N 51°21' E 004°17'1 1.6
2018-Jun-22 09:00N 51°20' E 004°18'1 2.4
2018-Jun-22 08:30N 51°19' E 004°18'0 0.0
2018-Jun-22 07:00N 51°19' E 004°18'0 0.0
2018-Jun-22 04:45N 51°19' E 004°18'0 0.0
2018-Jun-22 04:21N 51°19' E 004°18'0 0.0
2018-Jun-22 03:51N 51°19' E 004°18'0 0.0
2018-Jun-22 03:27N 51°19' E 004°18'0 0.0
2018-Jun-22 02:57N 51°19' E 004°18'0 0.0
2018-Jun-22 02:30N 51°19' E 004°18'0 0.0
2018-Jun-22 01:57N 51°19' E 004°18'0 0.0
2018-Jun-22 01:27N 51°19' E 004°18'0 0.0
2018-Jun-22 00:51N 51°19' E 004°18'0 0.0
2018-Jun-22 00:30N 51°19' E 004°18'0 0.0
2018-Jun-21 23:57N 51°19' E 004°18'0 0.0
2018-Jun-21 23:21N 51°19' E 004°18'0 0.0
2018-Jun-21 22:51N 51°19' E 004°18'0 0.0
2018-Jun-21 22:21N 51°19' E 004°18'0 0.0
2018-Jun-21 21:57N 51°19' E 004°18'0 0.0
2018-Jun-21 21:30N 51°19' E 004°18'0 0.0
2018-Jun-21 20:54N 51°19' E 004°18'0 0.0
2018-Jun-21 20:27N 51°19' E 004°18'0 0.0
2018-Jun-21 19:51N 51°19' E 004°18'0 0.0
2018-Jun-21 19:24N 51°19' E 004°18'0 0.0
2018-Jun-21 18:57N 51°19' E 004°18'0 0.0
2018-Jun-21 18:26N 51°19' E 004°18'0 0.0
2018-Jun-21 17:59N 51°19' E 004°18'0 0.0
2018-Jun-21 17:29N 51°19' E 004°18'0 0.0
2018-Jun-21 16:50N 51°19' E 004°18'0 0.0
2018-Jun-21 16:29N 51°19' E 004°18'0 0.0
2018-Jun-21 15:56N 51°19' E 004°18'0 0.0
2018-Jun-21 15:20N 51°19' E 004°18'0 0.0
2018-Jun-21 14:56N 51°19' E 004°18'0 0.0
2018-Jun-21 14:20N 51°19' E 004°18'0 0.0
2018-Jun-21 13:44N 51°19' E 004°18'0 0.0
2018-Jun-21 13:26N 51°19' E 004°18'0 0.0
2018-Jun-21 12:56N 51°19' E 004°18'0 0.0
2018-Jun-21 12:26N 51°19' E 004°18'0 0.0
2018-Jun-21 11:56N 51°19' E 004°18'0 0.0
2018-Jun-21 10:38N 51°19' E 004°18'0 0.0
2018-Jun-21 10:26N 51°19' E 004°18'0 0.0
2018-Jun-21 07:02N 51°19' E 004°18'0 0.0
2018-Jun-21 06:50N 51°19' E 004°18'0 0.0
2018-Jun-21 06:20N 51°19' E 004°18'0 0.1
2018-Jun-21 06:00N 51°19' E 004°18'2 3.9
2018-Jun-21 05:30N 51°21' E 004°17'0 0.2
2018-Jun-21 05:01N 51°21' E 004°17'0 0.0
2018-Jun-21 04:30N 51°21' E 004°17'0 0.0
2018-Jun-21 04:00N 51°21' E 004°17'1 1.4
2018-Jun-21 03:30N 51°20' E 004°16'2 4.7
2018-Jun-21 03:00N 51°18' E 004°17'2 4.6
2018-Jun-21 02:31N 51°16' E 004°17'0 0.1
2018-Jun-21 02:01N 51°16' E 004°17'0 0.2
2018-Jun-21 01:30N 51°16' E 004°17'1 1.4
2018-Jun-21 00:57N 51°16' E 004°15'0 0.0
2018-Jun-21 00:27N 51°16' E 004°15'0 0.0
2018-Jun-21 00:00N 51°16' E 004°15'0 0.0
2018-Jun-20 23:15N 51°16' E 004°15'0 0.0
2018-Jun-20 23:00N 51°16' E 004°15'0 0.0
2018-Jun-20 22:21N 51°16' E 004°15'0 0.0
2018-Jun-20 21:51N 51°16' E 004°15'0 0.0
2018-Jun-20 21:27N 51°16' E 004°15'0 0.0
2018-Jun-20 21:00N 51°16' E 004°15'0 0.0
2018-Jun-20 20:27N 51°16' E 004°15'0 0.0
2018-Jun-20 20:00N 51°16' E 004°15'0 0.0
2018-Jun-20 19:30N 51°16' E 004°15'0 0.0
2018-Jun-20 18:57N 51°16' E 004°15'0 0.0
2018-Jun-20 18:30N 51°16' E 004°15'0 0.0
2018-Jun-20 17:54N 51°16' E 004°15'0 0.0
2018-Jun-20 17:26N 51°16' E 004°15'0 0.0
2018-Jun-20 16:59N 51°16' E 004°15'0 0.0
2018-Jun-20 16:14N 51°16' E 004°15'0 0.0
2018-Jun-20 15:56N 51°16' E 004°15'0 0.0
2018-Jun-20 14:44N 51°16' E 004°15'0 0.0
2018-Jun-20 14:26N 51°16' E 004°15'0 0.0
2018-Jun-20 13:56N 51°16' E 004°15'0 0.0
2018-Jun-20 13:14N 51°16' E 004°15'0 0.0
2018-Jun-20 12:56N 51°16' E 004°15'0 0.0
2018-Jun-20 12:26N 51°16' E 004°15'0 0.0
2018-Jun-20 11:50N 51°16' E 004°15'0 0.0
2018-Jun-20 11:02N 51°16' E 004°15'0 0.0
2018-Jun-20 10:32N 51°16' E 004°15'0 0.0
2018-Jun-20 10:26N 51°16' E 004°15'0 0.0
2018-Jun-20 09:50N 51°16' E 004°15'0 0.0
2018-Jun-20 09:20N 51°16' E 004°15'0 0.0
2018-Jun-20 08:50N 51°16' E 004°15'0 0.0
2018-Jun-20 08:26N 51°16' E 004°15'0 0.0
2018-Jun-20 07:56N 51°16' E 004°15'0 0.0
2018-Jun-20 07:23N 51°16' E 004°15'0 0.0
2018-Jun-20 06:50N 51°16' E 004°15'0 0.0
2018-Jun-20 06:20N 51°16' E 004°15'0 0.0
2018-Jun-20 05:50N 51°16' E 004°15'0 0.0
2018-Jun-20 05:29N 51°16' E 004°15'0 0.0
2018-Jun-20 04:56N 51°16' E 004°15'0 0.0
2018-Jun-20 04:20N 51°16' E 004°15'0 0.0
2018-Jun-20 03:53N 51°16' E 004°15'0 0.0
2018-Jun-20 03:26N 51°16' E 004°15'0 0.0
2018-Jun-20 02:59N 51°16' E 004°15'0 0.0
2018-Jun-20 02:20N 51°16' E 004°15'0 0.0
2018-Jun-20 01:41N 51°16' E 004°15'0 0.0
2018-Jun-20 01:29N 51°16' E 004°15'0 0.0
2018-Jun-20 00:50N 51°16' E 004°15'0 0.0
2018-Jun-20 00:29N 51°16' E 004°15'0 0.0
2018-Jun-19 23:59N 51°16' E 004°15'0 0.0
2018-Jun-19 23:26N 51°16' E 004°15'0 0.0
2018-Jun-19 22:59N 51°16' E 004°15'0 0.0
2018-Jun-19 22:29N 51°16' E 004°15'0 0.0
2018-Jun-19 21:56N 51°16' E 004°15'0 0.0
2018-Jun-19 21:26N 51°16' E 004°15'0 0.0
2018-Jun-19 20:59N 51°16' E 004°15'0 0.0
2018-Jun-19 20:26N 51°16' E 004°15'0 0.0
2018-Jun-19 19:56N 51°16' E 004°15'0 0.0
2018-Jun-19 19:26N 51°16' E 004°15'0 0.0
2018-Jun-19 18:59N 51°16' E 004°15'0 0.0
2018-Jun-19 18:29N 51°16' E 004°15'0 0.0
2018-Jun-19 17:59N 51°16' E 004°15'0 0.0
2018-Jun-19 17:26N 51°16' E 004°15'0 0.0
2018-Jun-19 16:59N 51°16' E 004°15'0 0.0
2018-Jun-19 16:26N 51°16' E 004°15'0 0.0
2018-Jun-19 15:59N 51°16' E 004°15'0 0.0
2018-Jun-19 15:29N 51°16' E 004°15'0 0.0
2018-Jun-19 14:59N 51°16' E 004°15'0 0.0
2018-Jun-19 14:29N 51°16' E 004°15'0 0.0
2018-Jun-19 13:59N 51°16' E 004°15'0 0.0
2018-Jun-19 13:29N 51°16' E 004°15'0 0.0
2018-Jun-19 12:59N 51°16' E 004°15'0 0.0
2018-Jun-19 12:29N 51°16' E 004°15'0 0.0
2018-Jun-19 11:53N 51°16' E 004°15'0 0.0
2018-Jun-19 11:26N 51°16' E 004°15'0 0.0
2018-Jun-19 10:56N 51°16' E 004°15'0 0.0
2018-Jun-19 10:29N 51°16' E 004°15'0 0.0
2018-Jun-19 09:59N 51°16' E 004°15'0 0.0
2018-Jun-19 09:29N 51°16' E 004°15'0 0.0
2018-Jun-19 08:47N 51°16' E 004°15'0 0.0
2018-Jun-19 08:17N 51°16' E 004°15'0 0.0
2018-Jun-19 07:56N 51°16' E 004°15'0 0.0
2018-Jun-19 07:23N 51°16' E 004°15'0 0.0
2018-Jun-19 06:59N 51°16' E 004°15'0 0.0
2018-Jun-19 06:29N 51°16' E 004°15'0 0.0
2018-Jun-19 05:52N 51°16' E 004°15'0 0.0
2018-Jun-19 05:28N 51°16' E 004°15'0 0.0
2018-Jun-19 04:58N 51°16' E 004°15'0 0.0
2018-Jun-19 04:28N 51°16' E 004°15'0 0.0
2018-Jun-19 03:58N 51°16' E 004°15'0 0.0
2018-Jun-19 03:28N 51°16' E 004°15'0 0.0
2018-Jun-19 02:58N 51°16' E 004°15'0 0.0
2018-Jun-19 02:22N 51°16' E 004°15'0 0.0
2018-Jun-19 01:58N 51°16' E 004°15'0 0.0
2018-Jun-19 01:28N 51°16' E 004°15'0 0.0
2018-Jun-19 00:58N 51°16' E 004°15'0 0.0
2018-Jun-19 00:28N 51°16' E 004°15'0 0.0
2018-Jun-19 00:01N 51°16' E 004°15'1 1.8
2018-Jun-18 23:30N 51°16' E 004°17'0 0.0
2018-Jun-18 23:00N 51°16' E 004°17'1 2.1
2018-Jun-18 22:31N 51°16' E 004°18'2 3.0
2018-Jun-18 22:00N 51°18' E 004°18'2 3.4
2018-Jun-18 21:31N 51°17' E 004°20'0 0.0
2018-Jun-18 21:00N 51°17' E 004°20'0 0.1
2018-Jun-18 20:30N 51°17' E 004°20'2 3.3
2018-Jun-18 20:00N 51°15' E 004°22'0 0.8
2018-Jun-18 19:30N 51°15' E 004°21'0 0.0
2018-Jun-18 18:59N 51°15' E 004°21'0 0.0
2018-Jun-18 18:29N 51°15' E 004°21'0 0.0
2018-Jun-18 17:56N 51°15' E 004°21'0 0.0
2018-Jun-18 17:26N 51°15' E 004°21'0 0.0
2018-Jun-18 16:59N 51°15' E 004°21'0 0.0
2018-Jun-18 16:29N 51°15' E 004°21'0 0.0
2018-Jun-18 15:59N 51°15' E 004°21'0 0.0
2018-Jun-18 15:29N 51°15' E 004°21'0 0.0
2018-Jun-18 14:59N 51°15' E 004°21'0 0.0
2018-Jun-18 14:29N 51°15' E 004°21'0 0.0
2018-Jun-18 13:59N 51°15' E 004°21'0 0.0
2018-Jun-18 13:29N 51°15' E 004°21'0 0.0
2018-Jun-18 12:59N 51°15' E 004°21'0 0.0
2018-Jun-18 12:29N 51°15' E 004°21'0 0.0
2018-Jun-18 11:59N 51°15' E 004°21'0 0.0
2018-Jun-18 11:20N 51°15' E 004°21'0 0.0
2018-Jun-18 10:56N 51°15' E 004°21'0 0.0
2018-Jun-18 10:29N 51°15' E 004°21'0 0.0
2018-Jun-18 09:59N 51°15' E 004°21'0 0.0
2018-Jun-18 09:29N 51°15' E 004°21'0 0.0
2018-Jun-18 08:59N 51°15' E 004°21'0 0.0
2018-Jun-18 08:29N 51°15' E 004°21'0 0.0
2018-Jun-18 07:59N 51°15' E 004°21'0 0.0
2018-Jun-18 07:29N 51°15' E 004°21'0 0.0
2018-Jun-18 06:58N 51°15' E 004°21'0 0.0
2018-Jun-18 06:28N 51°15' E 004°21'0 0.0
2018-Jun-18 05:58N 51°15' E 004°21'0 0.0
2018-Jun-18 05:28N 51°15' E 004°21'0 0.0
2018-Jun-18 04:58N 51°15' E 004°21'0 0.0
2018-Jun-18 04:28N 51°15' E 004°21'0 0.0
2018-Jun-18 03:55N 51°15' E 004°21'0 0.0
2018-Jun-18 03:28N 51°15' E 004°21'0 0.0
2018-Jun-18 02:58N 51°15' E 004°21'0 0.0
2018-Jun-18 02:28N 51°15' E 004°21'0 0.0
2018-Jun-18 01:58N 51°15' E 004°21'0 0.0
2018-Jun-18 01:28N 51°15' E 004°21'0 0.0
2018-Jun-18 00:58N 51°15' E 004°21'0 0.0
2018-Jun-18 00:28N 51°15' E 004°21'0 0.0
2018-Jun-17 23:55N 51°15' E 004°21'0 0.0
2018-Jun-17 23:28N 51°15' E 004°21'0 0.0
2018-Jun-17 22:58N 51°15' E 004°21'0 0.0
2018-Jun-17 22:28N 51°15' E 004°21'0 0.0
2018-Jun-17 21:58N 51°15' E 004°21'0 0.0
2018-Jun-17 21:28N 51°15' E 004°21'0 0.0
2018-Jun-17 20:58N 51°15' E 004°21'0 0.0
2018-Jun-17 20:28N 51°15' E 004°21'0 0.0
2018-Jun-17 19:58N 51°15' E 004°21'0 0.0
2018-Jun-17 19:28N 51°15' E 004°21'0 0.0
2018-Jun-17 18:58N 51°15' E 004°21'0 0.0
2018-Jun-17 18:28N 51°15' E 004°21'0 0.0
2018-Jun-17 17:55N 51°15' E 004°21'0 0.0
2018-Jun-17 17:28N 51°15' E 004°21'0 0.0
2018-Jun-17 16:58N 51°15' E 004°21'0 0.0
2018-Jun-17 16:28N 51°15' E 004°21'0 0.0
2018-Jun-17 15:58N 51°15' E 004°21'0 0.0
2018-Jun-17 15:28N 51°15' E 004°21'0 0.0
2018-Jun-17 14:58N 51°15' E 004°21'0 0.0
2018-Jun-17 14:28N 51°15' E 004°21'0 0.0
2018-Jun-17 13:58N 51°15' E 004°21'0 0.0
2018-Jun-17 13:28N 51°15' E 004°21'0 0.0
2018-Jun-17 12:58N 51°15' E 004°21'0 0.0
2018-Jun-17 12:28N 51°15' E 004°21'0 0.0
2018-Jun-17 11:58N 51°15' E 004°21'0 0.0
2018-Jun-17 11:28N 51°15' E 004°21'0 0.0
2018-Jun-17 10:58N 51°15' E 004°21'0 0.0
2018-Jun-17 10:28N 51°15' E 004°21'0 0.0
2018-Jun-17 09:58N 51°15' E 004°21'0 0.0
2018-Jun-17 09:28N 51°15' E 004°21'0 0.0
2018-Jun-17 08:58N 51°15' E 004°21'0 0.0
2018-Jun-17 08:28N 51°15' E 004°21'0 0.0
2018-Jun-17 07:58N 51°15' E 004°21'0 0.0
2018-Jun-17 07:28N 51°15' E 004°21'0 0.0
2018-Jun-17 06:58N 51°15' E 004°21'0 0.0
2018-Jun-17 06:22N 51°15' E 004°21'0 0.0
2018-Jun-17 05:58N 51°15' E 004°21'0 0.0
2018-Jun-17 05:28N 51°15' E 004°21'0 0.0
2018-Jun-17 04:58N 51°15' E 004°21'0 0.0
2018-Jun-17 04:28N 51°15' E 004°21'0 0.0
2018-Jun-17 03:58N 51°15' E 004°21'0 0.0
2018-Jun-17 03:28N 51°15' E 004°21'0 0.0
2018-Jun-17 02:58N 51°15' E 004°21'0 0.0
2018-Jun-17 02:25N 51°15' E 004°21'0 0.0
2018-Jun-17 01:58N 51°15' E 004°21'0 0.0
2018-Jun-17 01:28N 51°15' E 004°21'0 0.0
2018-Jun-17 00:58N 51°15' E 004°21'0 0.0
2018-Jun-17 00:28N 51°15' E 004°21'0 0.0
2018-Jun-16 23:58N 51°15' E 004°21'0 0.0
2018-Jun-16 23:28N 51°15' E 004°21'0 0.0
2018-Jun-16 22:58N 51°15' E 004°21'0 0.0
2018-Jun-16 22:28N 51°15' E 004°21'0 0.0
2018-Jun-16 21:58N 51°15' E 004°21'0 0.0
2018-Jun-16 21:28N 51°15' E 004°21'0 0.0
2018-Jun-16 20:58N 51°15' E 004°21'0 0.0
2018-Jun-16 20:28N 51°15' E 004°21'0 0.0
2018-Jun-16 19:58N 51°15' E 004°21'0 0.0
2018-Jun-16 19:31N 51°15' E 004°21'0 0.0
2018-Jun-16 19:01N 51°15' E 004°21'0 0.0
2018-Jun-16 18:31N 51°15' E 004°21'0 0.0
2018-Jun-16 18:00N 51°15' E 004°21'0 0.0
2018-Jun-16 17:30N 51°15' E 004°21'0 0.0
2018-Jun-16 17:00N 51°15' E 004°21'0 0.0
2018-Jun-16 16:30N 51°15' E 004°21'0 0.0
2018-Jun-16 16:00N 51°15' E 004°21'0 0.0
2018-Jun-16 15:30N 51°15' E 004°21'0 0.0
2018-Jun-16 15:00N 51°15' E 004°21'0 0.0
2018-Jun-16 14:27N 51°15' E 004°21'0 0.0
2018-Jun-16 14:00N 51°15' E 004°21'0 0.0
2018-Jun-16 13:30N 51°15' E 004°21'0 0.0
2018-Jun-16 13:00N 51°15' E 004°21'0 0.0
2018-Jun-16 12:30N 51°15' E 004°21'0 0.0
2018-Jun-16 12:00N 51°15' E 004°21'0 0.0
2018-Jun-16 11:30N 51°15' E 004°21'0 0.2
2018-Jun-16 11:00N 51°15' E 004°21'1 1.8
2018-Jun-16 10:27N 51°16' E 004°21'0 0.0
2018-Jun-16 09:51N 51°16' E 004°21'0 0.0
2018-Jun-16 09:30N 51°16' E 004°21'0 0.0
2018-Jun-16 09:00N 51°16' E 004°21'0 0.0
2018-Jun-16 08:30N 51°16' E 004°21'0 0.0
2018-Jun-16 08:00N 51°16' E 004°21'0 0.0
2018-Jun-16 07:30N 51°16' E 004°21'0 0.0
2018-Jun-16 07:00N 51°16' E 004°21'0 0.0
2018-Jun-16 06:30N 51°16' E 004°21'0 0.0
2018-Jun-16 06:00N 51°16' E 004°21'0 0.0
2018-Jun-16 05:30N 51°16' E 004°21'0 0.0
2018-Jun-16 05:00N 51°16' E 004°21'0 0.0
2018-Jun-16 04:30N 51°16' E 004°21'0 0.0
2018-Jun-16 04:00N 51°16' E 004°21'0 0.0
2018-Jun-16 03:30N 51°16' E 004°21'0 0.0
2018-Jun-16 02:57N 51°16' E 004°21'0 0.0
2018-Jun-16 02:27N 51°16' E 004°21'0 0.0
2018-Jun-16 02:00N 51°16' E 004°21'0 0.0
2018-Jun-16 01:30N 51°16' E 004°21'0 0.0
2018-Jun-16 00:57N 51°16' E 004°21'0 0.0
2018-Jun-16 00:30N 51°16' E 004°21'0 0.0
2018-Jun-15 23:59N 51°16' E 004°21'0 0.0
2018-Jun-15 23:26N 51°16' E 004°21'0 0.0
2018-Jun-15 22:59N 51°16' E 004°21'0 0.0
2018-Jun-15 22:29N 51°16' E 004°21'0 0.0
2018-Jun-15 21:56N 51°16' E 004°21'0 0.0
2018-Jun-15 21:26N 51°16' E 004°21'0 0.0
2018-Jun-15 20:56N 51°16' E 004°21'0 0.0
2018-Jun-15 20:26N 51°16' E 004°21'0 0.0
2018-Jun-15 19:44N 51°16' E 004°21'0 0.0
2018-Jun-15 19:26N 51°16' E 004°21'0 0.0
2018-Jun-15 18:59N 51°16' E 004°21'0 0.0
2018-Jun-15 18:26N 51°16' E 004°21'0 0.0
2018-Jun-15 17:56N 51°16' E 004°21'0 0.0
2018-Jun-15 17:29N 51°16' E 004°21'0 0.0
2018-Jun-15 16:59N 51°16' E 004°21'0 0.0
2018-Jun-15 16:29N 51°16' E 004°21'0 0.0
2018-Jun-15 15:53N 51°16' E 004°21'0 0.0
2018-Jun-15 15:26N 51°16' E 004°21'0 0.0
2018-Jun-15 14:59N 51°16' E 004°21'0 0.0
2018-Jun-15 14:23N 51°16' E 004°21'0 0.0
2018-Jun-15 13:59N 51°16' E 004°21'0 0.0
2018-Jun-15 13:29N 51°16' E 004°21'0 0.0
2018-Jun-15 12:59N 51°16' E 004°21'0 0.0
2018-Jun-15 12:26N 51°16' E 004°21'0 0.0
2018-Jun-15 11:59N 51°16' E 004°21'0 0.0
2018-Jun-15 11:29N 51°16' E 004°21'0 0.0
2018-Jun-15 10:56N 51°16' E 004°21'0 0.0
2018-Jun-15 10:29N 51°16' E 004°21'0 0.0
2018-Jun-15 09:59N 51°16' E 004°21'0 0.0
2018-Jun-15 09:29N 51°16' E 004°21'0 0.0
2018-Jun-15 08:59N 51°16' E 004°21'0 0.0
2018-Jun-15 08:29N 51°16' E 004°21'0 0.0
2018-Jun-15 07:56N 51°16' E 004°21'0 0.0
2018-Jun-15 07:29N 51°16' E 004°21'0 0.0
2018-Jun-15 06:53N 51°16' E 004°21'0 0.0
2018-Jun-15 06:23N 51°16' E 004°21'0 0.0
2018-Jun-15 05:56N 51°16' E 004°21'0 0.0
2018-Jun-15 05:29N 51°16' E 004°21'0 0.0
2018-Jun-15 04:53N 51°16' E 004°21'0 0.0
2018-Jun-15 04:29N 51°16' E 004°21'0 0.0
2018-Jun-15 03:59N 51°16' E 004°21'0 0.0
2018-Jun-15 03:29N 51°16' E 004°21'0 0.0
2018-Jun-15 02:59N 51°16' E 004°21'0 0.0
2018-Jun-15 02:29N 51°16' E 004°21'0 0.0
2018-Jun-15 01:59N 51°16' E 004°21'0 0.0
2018-Jun-15 01:26N 51°16' E 004°21'0 0.0
2018-Jun-15 00:59N 51°16' E 004°21'0 0.0
2018-Jun-15 00:29N 51°16' E 004°21'0 0.0
2018-Jun-14 23:59N 51°16' E 004°21'0 0.0
2018-Jun-14 23:29N 51°16' E 004°21'0 0.0
2018-Jun-14 22:56N 51°16' E 004°21'0 0.0
2018-Jun-14 22:29N 51°16' E 004°21'0 0.0
2018-Jun-14 21:59N 51°16' E 004°21'0 0.0
2018-Jun-14 21:23N 51°16' E 004°21'0 0.0
2018-Jun-14 20:59N 51°16' E 004°21'0 0.0
2018-Jun-14 20:29N 51°16' E 004°21'0 0.0
2018-Jun-14 19:59N 51°16' E 004°21'0 0.0
2018-Jun-14 19:29N 51°16' E 004°21'0 0.0
2018-Jun-14 18:59N 51°16' E 004°21'0 0.0
2018-Jun-14 18:29N 51°16' E 004°21'0 0.0
2018-Jun-14 17:59N 51°16' E 004°21'0 0.0
2018-Jun-14 17:26N 51°16' E 004°21'0 0.0
2018-Jun-14 16:56N 51°16' E 004°21'0 0.0
2018-Jun-14 16:29N 51°16' E 004°21'0 0.0
2018-Jun-14 15:59N 51°16' E 004°21'0 0.0
2018-Jun-14 15:29N 51°16' E 004°21'0 0.0
2018-Jun-14 14:56N 51°16' E 004°21'0 0.0
2018-Jun-14 14:29N 51°16' E 004°21'0 0.0
2018-Jun-14 13:59N 51°16' E 004°21'0 0.0
2018-Jun-14 13:26N 51°16' E 004°21'0 0.0
2018-Jun-14 12:59N 51°16' E 004°21'0 0.0
2018-Jun-14 12:28N 51°16' E 004°21'0 0.0
2018-Jun-14 11:58N 51°16' E 004°21'0 0.0
2018-Jun-14 11:28N 51°16' E 004°21'0 0.0
2018-Jun-14 10:58N 51°16' E 004°21'0 0.0
2018-Jun-14 10:25N 51°16' E 004°21'0 0.0
2018-Jun-14 09:58N 51°16' E 004°21'0 0.0
2018-Jun-14 09:28N 51°16' E 004°21'0 0.0
2018-Jun-14 08:52N 51°16' E 004°21'0 0.0
2018-Jun-14 08:28N 51°16' E 004°21'0 0.0
2018-Jun-14 07:58N 51°16' E 004°21'0 0.0
2018-Jun-14 07:28N 51°16' E 004°21'0 0.0
2018-Jun-14 06:55N 51°16' E 004°21'0 0.0
2018-Jun-14 06:28N 51°16' E 004°21'0 0.0
2018-Jun-14 05:58N 51°16' E 004°21'0 0.0
2018-Jun-14 05:28N 51°16' E 004°21'0 0.0
2018-Jun-14 04:55N 51°16' E 004°21'0 0.0
2018-Jun-14 04:28N 51°16' E 004°21'0 0.0
2018-Jun-14 03:58N 51°16' E 004°21'0 0.0
2018-Jun-14 03:25N 51°16' E 004°21'0 0.0
2018-Jun-14 02:58N 51°16' E 004°21'0 0.0
2018-Jun-14 02:28N 51°16' E 004°21'0 0.0
2018-Jun-14 01:55N 51°16' E 004°21'0 0.0
2018-Jun-14 01:28N 51°16' E 004°21'0 0.0
2018-Jun-14 00:55N 51°16' E 004°21'0 0.0
2018-Jun-14 00:22N 51°16' E 004°21'0 0.0
2018-Jun-13 23:58N 51°16' E 004°21'0 0.0
2018-Jun-13 23:28N 51°16' E 004°21'0 0.0
2018-Jun-13 22:58N 51°16' E 004°21'0 0.0
2018-Jun-13 22:28N 51°16' E 004°21'0 0.0
2018-Jun-13 21:58N 51°16' E 004°21'0 0.0
2018-Jun-13 21:28N 51°16' E 004°21'0 0.0
2018-Jun-13 20:58N 51°16' E 004°21'0 0.0
2018-Jun-13 20:25N 51°16' E 004°21'0 0.0
2018-Jun-13 19:58N 51°16' E 004°21'0 0.0
2018-Jun-13 19:28N 51°16' E 004°21'0 0.0
2018-Jun-13 18:58N 51°16' E 004°21'0 0.0
2018-Jun-13 18:28N 51°16' E 004°21'0 0.0
2018-Jun-13 17:58N 51°16' E 004°21'0 0.0
2018-Jun-13 17:28N 51°16' E 004°21'0 0.0
2018-Jun-13 16:58N 51°16' E 004°21'0 0.0
2018-Jun-13 16:28N 51°16' E 004°21'0 0.0
2018-Jun-13 15:58N 51°16' E 004°21'0 0.0
2018-Jun-13 15:28N 51°16' E 004°21'0 0.0
2018-Jun-13 14:58N 51°16' E 004°21'0 0.0
2018-Jun-13 14:28N 51°16' E 004°21'0 0.0
2018-Jun-13 13:49N 51°16' E 004°21'0 0.0
2018-Jun-13 13:28N 51°16' E 004°21'0 0.0
2018-Jun-13 12:52N 51°16' E 004°21'0 0.0
2018-Jun-13 12:28N 51°16' E 004°21'0 0.0
2018-Jun-13 11:58N 51°16' E 004°21'0 0.0
2018-Jun-13 11:28N 51°16' E 004°21'0 0.0
2018-Jun-13 10:58N 51°16' E 004°21'0 0.0
2018-Jun-13 10:28N 51°16' E 004°21'0 0.0
2018-Jun-13 09:58N 51°16' E 004°21'0 0.0
2018-Jun-13 09:25N 51°16' E 004°21'0 0.0
2018-Jun-13 08:58N 51°16' E 004°21'0 0.0
2018-Jun-13 08:28N 51°16' E 004°21'0 0.0
2018-Jun-13 07:58N 51°16' E 004°21'0 0.0
2018-Jun-13 07:25N 51°16' E 004°21'0 0.0
2018-Jun-13 06:58N 51°16' E 004°21'0 0.0
2018-Jun-13 06:28N 51°16' E 004°21'0 0.0
2018-Jun-13 05:58N 51°16' E 004°21'0 0.0
2018-Jun-13 05:28N 51°16' E 004°21'0 0.0
2018-Jun-13 04:58N 51°16' E 004°21'0 0.0
2018-Jun-13 04:22N 51°16' E 004°21'0 0.0
2018-Jun-13 03:58N 51°16' E 004°21'0 0.0
2018-Jun-13 03:28N 51°16' E 004°21'0 0.0
2018-Jun-13 02:52N 51°16' E 004°21'0 0.0
2018-Jun-13 02:25N 51°16' E 004°21'0 0.0
2018-Jun-13 01:58N 51°16' E 004°21'0 0.0
2018-Jun-13 01:28N 51°16' E 004°21'0 0.0
2018-Jun-13 00:58N 51°16' E 004°21'0 0.0
2018-Jun-13 00:28N 51°16' E 004°21'0 0.0
2018-Jun-12 23:51N 51°16' E 004°21'0 0.0
2018-Jun-12 23:27N 51°16' E 004°21'0 0.0
2018-Jun-12 23:00N 51°16' E 004°21'0 0.0
2018-Jun-12 22:30N 51°16' E 004°21'0 0.0
2018-Jun-12 22:00N 51°16' E 004°21'0 0.0
2018-Jun-12 21:27N 51°16' E 004°21'0 0.0
2018-Jun-12 20:57N 51°16' E 004°21'0 0.0
2018-Jun-12 20:30N 51°16' E 004°21'0 0.0
2018-Jun-12 20:00N 51°16' E 004°21'0 0.0
2018-Jun-12 19:27N 51°16' E 004°21'0 0.0
2018-Jun-12 19:00N 51°16' E 004°21'0 0.0
2018-Jun-12 18:30N 51°16' E 004°21'  
Track history (hours):
 
Tides and Currents Weather Stations Pressure Air Temp Water Temp Dewpoint Dewpoint Depression Visibility Wind Speed Wind Dir Waves Ship Positions

Ellen Essberger

Last reported at 2018-Jun-22 18:30 UTC. Time now 2018-Jun-22 18:34 UTC.
Position N 51°22' E 001°56'.

Length 118 m; draft 7.5 m.

Type: Ship (hazmat cat B). MMSI: 255805340.

Date/timePositionNaut miles runAvg speedWind from/ knotsBaromVisibWave heightAir tempDewpointWater temp
2018-Jun-22 18:30N 51°22' E 001°56'5 9.9
2018-Jun-22 18:01N 51°24' E 002°04'611.5
2018-Jun-22 17:30N 51°22' E 002°12'611.3
2018-Jun-22 17:00N 51°22' E 002°21'612.6
2018-Jun-22 16:30N 51°23' E 002°31'612.2
2018-Jun-22 15:59N 51°22' E 002°41'4 8.7
2018-Jun-22 15:30N 51°22' E 002°48'712.7
2018-Jun-22 14:58N 51°23' E 002°59'511.6
2018-Jun-22 14:30N 51°24' E 003°07'612.8
2018-Jun-22 14:01N 51°25' E 003°17'713.1
2018-Jun-22 13:30N 51°25' E 003°28'713.1
2018-Jun-22 13:00N 51°26' E 003°38'612.0
2018-Jun-22 12:30N 51°22' E 003°45'612.9
2018-Jun-22 12:00N 51°22' E 003°55'510.5
2018-Jun-22 11:31N 51°26' E 004°02'510.3
2018-Jun-22 11:01N 51°22' E 004°08'4 7.9
2018-Jun-22 10:30N 51°21' E 004°14'2 3.7
2018-Jun-22 10:00N 51°21' E 004°17'0 0.0
2018-Jun-22 09:31N 51°21' E 004°17'1 1.6
2018-Jun-22 09:00N 51°20' E 004°18'1 2.4
2018-Jun-22 08:30N 51°19' E 004°18'0 0.0
2018-Jun-22 07:00N 51°19' E 004°18'0 0.0
2018-Jun-22 04:45N 51°19' E 004°18'0 0.0
2018-Jun-22 04:21N 51°19' E 004°18'0 0.0
2018-Jun-22 03:51N 51°19' E 004°18'0 0.0
2018-Jun-22 03:27N 51°19' E 004°18'0 0.0
2018-Jun-22 02:57N 51°19' E 004°18'0 0.0
2018-Jun-22 02:30N 51°19' E 004°18'0 0.0
2018-Jun-22 01:57N 51°19' E 004°18'0 0.0
2018-Jun-22 01:27N 51°19' E 004°18'0 0.0
2018-Jun-22 00:51N 51°19' E 004°18'0 0.0
2018-Jun-22 00:30N 51°19' E 004°18'0 0.0
2018-Jun-21 23:57N 51°19' E 004°18'0 0.0
2018-Jun-21 23:21N 51°19' E 004°18'0 0.0
2018-Jun-21 22:51N 51°19' E 004°18'0 0.0
2018-Jun-21 22:21N 51°19' E 004°18'0 0.0
2018-Jun-21 21:57N 51°19' E 004°18'0 0.0
2018-Jun-21 21:30N 51°19' E 004°18'0 0.0
2018-Jun-21 20:54N 51°19' E 004°18'0 0.0
2018-Jun-21 20:27N 51°19' E 004°18'0 0.0
2018-Jun-21 19:51N 51°19' E 004°18'0 0.0
2018-Jun-21 19:24N 51°19' E 004°18'0 0.0
2018-Jun-21 18:57N 51°19' E 004°18'0 0.0
2018-Jun-21 18:26N 51°19' E 004°18'0 0.0
2018-Jun-21 17:59N 51°19' E 004°18'0 0.0
2018-Jun-21 17:29N 51°19' E 004°18'0 0.0
2018-Jun-21 16:50N 51°19' E 004°18'0 0.0
2018-Jun-21 16:29N 51°19' E 004°18'0 0.0
2018-Jun-21 15:56N 51°19' E 004°18'0 0.0
2018-Jun-21 15:20N 51°19' E 004°18'0 0.0
2018-Jun-21 14:56N 51°19' E 004°18'0 0.0
2018-Jun-21 14:20N 51°19' E 004°18'0 0.0
2018-Jun-21 13:44N 51°19' E 004°18'0 0.0
2018-Jun-21 13:26N 51°19' E 004°18'0 0.0
2018-Jun-21 12:56N 51°19' E 004°18'0 0.0
2018-Jun-21 12:26N 51°19' E 004°18'0 0.0
2018-Jun-21 11:56N 51°19' E 004°18'0 0.0
2018-Jun-21 10:38N 51°19' E 004°18'0 0.0
2018-Jun-21 10:26N 51°19' E 004°18'0 0.0
2018-Jun-21 07:02N 51°19' E 004°18'0 0.0
2018-Jun-21 06:50N 51°19' E 004°18'0 0.0
2018-Jun-21 06:20N 51°19' E 004°18'0 0.1
2018-Jun-21 06:00N 51°19' E 004°18'2 3.9
2018-Jun-21 05:30N 51°21' E 004°17'0 0.2
2018-Jun-21 05:01N 51°21' E 004°17'0 0.0
2018-Jun-21 04:30N 51°21' E 004°17'0 0.0
2018-Jun-21 04:00N 51°21' E 004°17'1 1.4
2018-Jun-21 03:30N 51°20' E 004°16'2 4.7
2018-Jun-21 03:00N 51°18' E 004°17'2 4.6
2018-Jun-21 02:31N 51°16' E 004°17'0 0.1
2018-Jun-21 02:01N 51°16' E 004°17'0 0.2
2018-Jun-21 01:30N 51°16' E 004°17'1 1.4
2018-Jun-21 00:57N 51°16' E 004°15'0 0.0
2018-Jun-21 00:27N 51°16' E 004°15'0 0.0
2018-Jun-21 00:00N 51°16' E 004°15'0 0.0
2018-Jun-20 23:15N 51°16' E 004°15'0 0.0
2018-Jun-20 23:00N 51°16' E 004°15'0 0.0
2018-Jun-20 22:21N 51°16' E 004°15'0 0.0
2018-Jun-20 21:51N 51°16' E 004°15'0 0.0
2018-Jun-20 21:27N 51°16' E 004°15'0 0.0
2018-Jun-20 21:00N 51°16' E 004°15'0 0.0
2018-Jun-20 20:27N 51°16' E 004°15'0 0.0
2018-Jun-20 20:00N 51°16' E 004°15'0 0.0
2018-Jun-20 19:30N 51°16' E 004°15'0 0.0
2018-Jun-20 18:57N 51°16' E 004°15'0 0.0
2018-Jun-20 18:30N 51°16' E 004°15'0 0.0
2018-Jun-20 17:54N 51°16' E 004°15'0 0.0
2018-Jun-20 17:26N 51°16' E 004°15'0 0.0
2018-Jun-20 16:59N 51°16' E 004°15'0 0.0
2018-Jun-20 16:14N 51°16' E 004°15'0 0.0
2018-Jun-20 15:56N 51°16' E 004°15'0 0.0
2018-Jun-20 14:44N 51°16' E 004°15'0 0.0
2018-Jun-20 14:26N 51°16' E 004°15'0 0.0
2018-Jun-20 13:56N 51°16' E 004°15'0 0.0
2018-Jun-20 13:14N 51°16' E 004°15'0 0.0
2018-Jun-20 12:56N 51°16' E 004°15'0 0.0
2018-Jun-20 12:26N 51°16' E 004°15'0 0.0
2018-Jun-20 11:50N 51°16' E 004°15'0 0.0
2018-Jun-20 11:02N 51°16' E 004°15'0 0.0
2018-Jun-20 10:32N 51°16' E 004°15'0 0.0
2018-Jun-20 10:26N 51°16' E 004°15'0 0.0
2018-Jun-20 09:50N 51°16' E 004°15'0 0.0
2018-Jun-20 09:20N 51°16' E 004°15'0 0.0
2018-Jun-20 08:50N 51°16' E 004°15'0 0.0
2018-Jun-20 08:26N 51°16' E 004°15'0 0.0
2018-Jun-20 07:56N 51°16' E 004°15'0 0.0
2018-Jun-20 07:23N 51°16' E 004°15'0 0.0
2018-Jun-20 06:50N 51°16' E 004°15'0 0.0
2018-Jun-20 06:20N 51°16' E 004°15'0 0.0
2018-Jun-20 05:50N 51°16' E 004°15'0 0.0
2018-Jun-20 05:29N 51°16' E 004°15'0 0.0
2018-Jun-20 04:56N 51°16' E 004°15'0 0.0
2018-Jun-20 04:20N 51°16' E 004°15'0 0.0
2018-Jun-20 03:53N 51°16' E 004°15'0 0.0
2018-Jun-20 03:26N 51°16' E 004°15'0 0.0
2018-Jun-20 02:59N 51°16' E 004°15'0 0.0
2018-Jun-20 02:20N 51°16' E 004°15'0 0.0
2018-Jun-20 01:41N 51°16' E 004°15'0 0.0
2018-Jun-20 01:29N 51°16' E 004°15'0 0.0
2018-Jun-20 00:50N 51°16' E 004°15'0 0.0
2018-Jun-20 00:29N 51°16' E 004°15'0 0.0
2018-Jun-19 23:59N 51°16' E 004°15'0 0.0
2018-Jun-19 23:26N 51°16' E 004°15'0 0.0
2018-Jun-19 22:59N 51°16' E 004°15'0 0.0
2018-Jun-19 22:29N 51°16' E 004°15'0 0.0
2018-Jun-19 21:56N 51°16' E 004°15'0 0.0
2018-Jun-19 21:26N 51°16' E 004°15'0 0.0
2018-Jun-19 20:59N 51°16' E 004°15'0 0.0
2018-Jun-19 20:26N 51°16' E 004°15'0 0.0
2018-Jun-19 19:56N 51°16' E 004°15'0 0.0
2018-Jun-19 19:26N 51°16' E 004°15'0 0.0
2018-Jun-19 18:59N 51°16' E 004°15'0 0.0
2018-Jun-19 18:29N 51°16' E 004°15'0 0.0
2018-Jun-19 17:59N 51°16' E 004°15'0 0.0
2018-Jun-19 17:26N 51°16' E 004°15'0 0.0
2018-Jun-19 16:59N 51°16' E 004°15'0 0.0
2018-Jun-19 16:26N 51°16' E 004°15'0 0.0
2018-Jun-19 15:59N 51°16' E 004°15'0 0.0
2018-Jun-19 15:29N 51°16' E 004°15'0 0.0
2018-Jun-19 14:59N 51°16' E 004°15'0 0.0
2018-Jun-19 14:29N 51°16' E 004°15'0 0.0
2018-Jun-19 13:59N 51°16' E 004°15'0 0.0
2018-Jun-19 13:29N 51°16' E 004°15'0 0.0
2018-Jun-19 12:59N 51°16' E 004°15'0 0.0
2018-Jun-19 12:29N 51°16' E 004°15'0 0.0
2018-Jun-19 11:53N 51°16' E 004°15'0 0.0
2018-Jun-19 11:26N 51°16' E 004°15'0 0.0
2018-Jun-19 10:56N 51°16' E 004°15'0 0.0
2018-Jun-19 10:29N 51°16' E 004°15'0 0.0
2018-Jun-19 09:59N 51°16' E 004°15'0 0.0
2018-Jun-19 09:29N 51°16' E 004°15'0 0.0
2018-Jun-19 08:47N 51°16' E 004°15'0 0.0
2018-Jun-19 08:17N 51°16' E 004°15'0 0.0
2018-Jun-19 07:56N 51°16' E 004°15'0 0.0
2018-Jun-19 07:23N 51°16' E 004°15'0 0.0
2018-Jun-19 06:59N 51°16' E 004°15'0 0.0
2018-Jun-19 06:29N 51°16' E 004°15'0 0.0
2018-Jun-19 05:52N 51°16' E 004°15'0 0.0
2018-Jun-19 05:28N 51°16' E 004°15'0 0.0
2018-Jun-19 04:58N 51°16' E 004°15'0 0.0
2018-Jun-19 04:28N 51°16' E 004°15'0 0.0
2018-Jun-19 03:58N 51°16' E 004°15'0 0.0
2018-Jun-19 03:28N 51°16' E 004°15'0 0.0
2018-Jun-19 02:58N 51°16' E 004°15'0 0.0
2018-Jun-19 02:22N 51°16' E 004°15'0 0.0
2018-Jun-19 01:58N 51°16' E 004°15'0 0.0
2018-Jun-19 01:28N 51°16' E 004°15'0 0.0
2018-Jun-19 00:58N 51°16' E 004°15'0 0.0
2018-Jun-19 00:28N 51°16' E 004°15'0 0.0
2018-Jun-19 00:01N 51°16' E 004°15'1 1.8
2018-Jun-18 23:30N 51°16' E 004°17'0 0.0
2018-Jun-18 23:00N 51°16' E 004°17'1 2.1
2018-Jun-18 22:31N 51°16' E 004°18'2 3.0
2018-Jun-18 22:00N 51°18' E 004°18'2 3.4
2018-Jun-18 21:31N 51°17' E 004°20'0 0.0
2018-Jun-18 21:00N 51°17' E 004°20'0 0.1
2018-Jun-18 20:30N 51°17' E 004°20'2 3.3
2018-Jun-18 20:00N 51°15' E 004°22'0 0.8
2018-Jun-18 19:30N 51°15' E 004°21'0 0.0
2018-Jun-18 18:59N 51°15' E 004°21'0 0.0
2018-Jun-18 18:29N 51°15' E 004°21'0 0.0
2018-Jun-18 17:56N 51°15' E 004°21'0 0.0
2018-Jun-18 17:26N 51°15' E 004°21'0 0.0
2018-Jun-18 16:59N 51°15' E 004°21'0 0.0
2018-Jun-18 16:29N 51°15' E 004°21'0 0.0
2018-Jun-18 15:59N 51°15' E 004°21'0 0.0
2018-Jun-18 15:29N 51°15' E 004°21'0 0.0
2018-Jun-18 14:59N 51°15' E 004°21'0 0.0
2018-Jun-18 14:29N 51°15' E 004°21'0 0.0
2018-Jun-18 13:59N 51°15' E 004°21'0 0.0
2018-Jun-18 13:29N 51°15' E 004°21'0 0.0
2018-Jun-18 12:59N 51°15' E 004°21'0 0.0
2018-Jun-18 12:29N 51°15' E 004°21'0 0.0
2018-Jun-18 11:59N 51°15' E 004°21'0 0.0
2018-Jun-18 11:20N 51°15' E 004°21'0 0.0
2018-Jun-18 10:56N 51°15' E 004°21'0 0.0
2018-Jun-18 10:29N 51°15' E 004°21'0 0.0
2018-Jun-18 09:59N 51°15' E 004°21'0 0.0
2018-Jun-18 09:29N 51°15' E 004°21'0 0.0
2018-Jun-18 08:59N 51°15' E 004°21'0 0.0
2018-Jun-18 08:29N 51°15' E 004°21'0 0.0
2018-Jun-18 07:59N 51°15' E 004°21'0 0.0
2018-Jun-18 07:29N 51°15' E 004°21'0 0.0
2018-Jun-18 06:58N 51°15' E 004°21'0 0.0
2018-Jun-18 06:28N 51°15' E 004°21'0 0.0
2018-Jun-18 05:58N 51°15' E 004°21'0 0.0
2018-Jun-18 05:28N 51°15' E 004°21'0 0.0
2018-Jun-18 04:58N 51°15' E 004°21'0 0.0
2018-Jun-18 04:28N 51°15' E 004°21'0 0.0
2018-Jun-18 03:55N 51°15' E 004°21'0 0.0
2018-Jun-18 03:28N 51°15' E 004°21'0 0.0
2018-Jun-18 02:58N 51°15' E 004°21'0 0.0
2018-Jun-18 02:28N 51°15' E 004°21'0 0.0
2018-Jun-18 01:58N 51°15' E 004°21'0 0.0
2018-Jun-18 01:28N 51°15' E 004°21'0 0.0
2018-Jun-18 00:58N 51°15' E 004°21'0 0.0
2018-Jun-18 00:28N 51°15' E 004°21'0 0.0
2018-Jun-17 23:55N 51°15' E 004°21'0 0.0
2018-Jun-17 23:28N 51°15' E 004°21'0 0.0
2018-Jun-17 22:58N 51°15' E 004°21'0 0.0
2018-Jun-17 22:28N 51°15' E 004°21'0 0.0
2018-Jun-17 21:58N 51°15' E 004°21'0 0.0
2018-Jun-17 21:28N 51°15' E 004°21'0 0.0
2018-Jun-17 20:58N 51°15' E 004°21'0 0.0
2018-Jun-17 20:28N 51°15' E 004°21'0 0.0
2018-Jun-17 19:58N 51°15' E 004°21'0 0.0
2018-Jun-17 19:28N 51°15' E 004°21'0 0.0
2018-Jun-17 18:58N 51°15' E 004°21'0 0.0
2018-Jun-17 18:28N 51°15' E 004°21'0 0.0
2018-Jun-17 17:55N 51°15' E 004°21'0 0.0
2018-Jun-17 17:28N 51°15' E 004°21'0 0.0
2018-Jun-17 16:58N 51°15' E 004°21'0 0.0
2018-Jun-17 16:28N 51°15' E 004°21'0 0.0
2018-Jun-17 15:58N 51°15' E 004°21'0 0.0
2018-Jun-17 15:28N 51°15' E 004°21'0 0.0
2018-Jun-17 14:58N 51°15' E 004°21'0 0.0
2018-Jun-17 14:28N 51°15' E 004°21'0 0.0
2018-Jun-17 13:58N 51°15' E 004°21'0 0.0
2018-Jun-17 13:28N 51°15' E 004°21'0 0.0
2018-Jun-17 12:58N 51°15' E 004°21'0 0.0
2018-Jun-17 12:28N 51°15' E 004°21'0 0.0
2018-Jun-17 11:58N 51°15' E 004°21'0 0.0
2018-Jun-17 11:28N 51°15' E 004°21'0 0.0
2018-Jun-17 10:58N 51°15' E 004°21'0 0.0
2018-Jun-17 10:28N 51°15' E 004°21'0 0.0
2018-Jun-17 09:58N 51°15' E 004°21'0 0.0
2018-Jun-17 09:28N 51°15' E 004°21'0 0.0
2018-Jun-17 08:58N 51°15' E 004°21'0 0.0
2018-Jun-17 08:28N 51°15' E 004°21'0 0.0
2018-Jun-17 07:58N 51°15' E 004°21'0 0.0
2018-Jun-17 07:28N 51°15' E 004°21'0 0.0
2018-Jun-17 06:58N 51°15' E 004°21'0 0.0
2018-Jun-17 06:22N 51°15' E 004°21'0 0.0
2018-Jun-17 05:58N 51°15' E 004°21'0 0.0
2018-Jun-17 05:28N 51°15' E 004°21'0 0.0
2018-Jun-17 04:58N 51°15' E 004°21'0 0.0
2018-Jun-17 04:28N 51°15' E 004°21'0 0.0
2018-Jun-17 03:58N 51°15' E 004°21'0 0.0
2018-Jun-17 03:28N 51°15' E 004°21'0 0.0
2018-Jun-17 02:58N 51°15' E 004°21'0 0.0
2018-Jun-17 02:25N 51°15' E 004°21'0 0.0
2018-Jun-17 01:58N 51°15' E 004°21'0 0.0
2018-Jun-17 01:28N 51°15' E 004°21'0 0.0
2018-Jun-17 00:58N 51°15' E 004°21'0 0.0
2018-Jun-17 00:28N 51°15' E 004°21'0 0.0
2018-Jun-16 23:58N 51°15' E 004°21'0 0.0
2018-Jun-16 23:28N 51°15' E 004°21'0 0.0
2018-Jun-16 22:58N 51°15' E 004°21'0 0.0
2018-Jun-16 22:28N 51°15' E 004°21'0 0.0
2018-Jun-16 21:58N 51°15' E 004°21'0 0.0
2018-Jun-16 21:28N 51°15' E 004°21'0 0.0
2018-Jun-16 20:58N 51°15' E 004°21'0 0.0
2018-Jun-16 20:28N 51°15' E 004°21'0 0.0
2018-Jun-16 19:58N 51°15' E 004°21'0 0.0
2018-Jun-16 19:31N 51°15' E 004°21'0 0.0
2018-Jun-16 19:01N 51°15' E 004°21'0 0.0
2018-Jun-16 18:31N 51°15' E 004°21'0 0.0
2018-Jun-16 18:00N 51°15' E 004°21'0 0.0
2018-Jun-16 17:30N 51°15' E 004°21'0 0.0
2018-Jun-16 17:00N 51°15' E 004°21'0 0.0
2018-Jun-16 16:30N 51°15' E 004°21'0 0.0
2018-Jun-16 16:00N 51°15' E 004°21'0 0.0
2018-Jun-16 15:30N 51°15' E 004°21'0 0.0
2018-Jun-16 15:00N 51°15' E 004°21'0 0.0
2018-Jun-16 14:27N 51°15' E 004°21'0 0.0
2018-Jun-16 14:00N 51°15' E 004°21'0 0.0
2018-Jun-16 13:30N 51°15' E 004°21'0 0.0
2018-Jun-16 13:00N 51°15' E 004°21'0 0.0
2018-Jun-16 12:30N 51°15' E 004°21'0 0.0
2018-Jun-16 12:00N 51°15' E 004°21'0 0.0
2018-Jun-16 11:30N 51°15' E 004°21'0 0.2
2018-Jun-16 11:00N 51°15' E 004°21'1 1.8
2018-Jun-16 10:27N 51°16' E 004°21'0 0.0
2018-Jun-16 09:51N 51°16' E 004°21'0 0.0
2018-Jun-16 09:30N 51°16' E 004°21'0 0.0
2018-Jun-16 09:00N 51°16' E 004°21'0 0.0
2018-Jun-16 08:30N 51°16' E 004°21'0 0.0
2018-Jun-16 08:00N 51°16' E 004°21'0 0.0
2018-Jun-16 07:30N 51°16' E 004°21'0 0.0
2018-Jun-16 07:00N 51°16' E 004°21'0 0.0
2018-Jun-16 06:30N 51°16' E 004°21'0 0.0
2018-Jun-16 06:00N 51°16' E 004°21'0 0.0
2018-Jun-16 05:30N 51°16' E 004°21'0 0.0
2018-Jun-16 05:00N 51°16' E 004°21'0 0.0
2018-Jun-16 04:30N 51°16' E 004°21'0 0.0
2018-Jun-16 04:00N 51°16' E 004°21'0 0.0
2018-Jun-16 03:30N 51°16' E 004°21'0 0.0
2018-Jun-16 02:57N 51°16' E 004°21'0 0.0
2018-Jun-16 02:27N 51°16' E 004°21'0 0.0
2018-Jun-16 02:00N 51°16' E 004°21'0 0.0
2018-Jun-16 01:30N 51°16' E 004°21'0 0.0
2018-Jun-16 00:57N 51°16' E 004°21'0 0.0
2018-Jun-16 00:30N 51°16' E 004°21'0 0.0
2018-Jun-15 23:59N 51°16' E 004°21'0 0.0
2018-Jun-15 23:26N 51°16' E 004°21'0 0.0
2018-Jun-15 22:59N 51°16' E 004°21'0 0.0
2018-Jun-15 22:29N 51°16' E 004°21'0 0.0
2018-Jun-15 21:56N 51°16' E 004°21'0 0.0
2018-Jun-15 21:26N 51°16' E 004°21'0 0.0
2018-Jun-15 20:56N 51°16' E 004°21'0 0.0
2018-Jun-15 20:26N 51°16' E 004°21'0 0.0
2018-Jun-15 19:44N 51°16' E 004°21'0 0.0
2018-Jun-15 19:26N 51°16' E 004°21'0 0.0
2018-Jun-15 18:59N 51°16' E 004°21'0 0.0
2018-Jun-15 18:26N 51°16' E 004°21'0 0.0
2018-Jun-15 17:56N 51°16' E 004°21'0 0.0
2018-Jun-15 17:29N 51°16' E 004°21'0 0.0
2018-Jun-15 16:59N 51°16' E 004°21'0 0.0
2018-Jun-15 16:29N 51°16' E 004°21'0 0.0
2018-Jun-15 15:53N 51°16' E 004°21'0 0.0
2018-Jun-15 15:26N 51°16' E 004°21'0 0.0
2018-Jun-15 14:59N 51°16' E 004°21'0 0.0
2018-Jun-15 14:23N 51°16' E 004°21'0 0.0
2018-Jun-15 13:59N 51°16' E 004°21'0 0.0
2018-Jun-15 13:29N 51°16' E 004°21'0 0.0
2018-Jun-15 12:59N 51°16' E 004°21'0 0.0
2018-Jun-15 12:26N 51°16' E 004°21'0 0.0
2018-Jun-15 11:59N 51°16' E 004°21'0 0.0
2018-Jun-15 11:29N 51°16' E 004°21'0 0.0
2018-Jun-15 10:56N 51°16' E 004°21'0 0.0
2018-Jun-15 10:29N 51°16' E 004°21'0 0.0
2018-Jun-15 09:59N 51°16' E 004°21'0 0.0
2018-Jun-15 09:29N 51°16' E 004°21'0 0.0
2018-Jun-15 08:59N 51°16' E 004°21'0 0.0
2018-Jun-15 08:29N 51°16' E 004°21'0 0.0
2018-Jun-15 07:56N 51°16' E 004°21'0 0.0
2018-Jun-15 07:29N 51°16' E 004°21'0 0.0
2018-Jun-15 06:53N 51°16' E 004°21'0 0.0
2018-Jun-15 06:23N 51°16' E 004°21'0 0.0
2018-Jun-15 05:56N 51°16' E 004°21'0 0.0
2018-Jun-15 05:29N 51°16' E 004°21'0 0.0
2018-Jun-15 04:53N 51°16' E 004°21'0 0.0
2018-Jun-15 04:29N 51°16' E 004°21'0 0.0
2018-Jun-15 03:59N 51°16' E 004°21'0 0.0
2018-Jun-15 03:29N 51°16' E 004°21'0 0.0
2018-Jun-15 02:59N 51°16' E 004°21'0 0.0
2018-Jun-15 02:29N 51°16' E 004°21'0 0.0
2018-Jun-15 01:59N 51°16' E 004°21'0 0.0
2018-Jun-15 01:26N 51°16' E 004°21'0 0.0
2018-Jun-15 00:59N 51°16' E 004°21'0 0.0
2018-Jun-15 00:29N 51°16' E 004°21'0 0.0
2018-Jun-14 23:59N 51°16' E 004°21'0 0.0
2018-Jun-14 23:29N 51°16' E 004°21'0 0.0
2018-Jun-14 22:56N 51°16' E 004°21'0 0.0
2018-Jun-14 22:29N 51°16' E 004°21'0 0.0
2018-Jun-14 21:59N 51°16' E 004°21'0 0.0
2018-Jun-14 21:23N 51°16' E 004°21'0 0.0
2018-Jun-14 20:59N 51°16' E 004°21'0 0.0
2018-Jun-14 20:29N 51°16' E 004°21'0 0.0
2018-Jun-14 19:59N 51°16' E 004°21'0 0.0
2018-Jun-14 19:29N 51°16' E 004°21'0 0.0
2018-Jun-14 18:59N 51°16' E 004°21'0 0.0
2018-Jun-14 18:29N 51°16' E 004°21'0 0.0
2018-Jun-14 17:59N 51°16' E 004°21'0 0.0
2018-Jun-14 17:26N 51°16' E 004°21'0 0.0
2018-Jun-14 16:56N 51°16' E 004°21'0 0.0
2018-Jun-14 16:29N 51°16' E 004°21'0 0.0
2018-Jun-14 15:59N 51°16' E 004°21'0 0.0
2018-Jun-14 15:29N 51°16' E 004°21'0 0.0
2018-Jun-14 14:56N 51°16' E 004°21'0 0.0
2018-Jun-14 14:29N 51°16' E 004°21'0 0.0
2018-Jun-14 13:59N 51°16' E 004°21'0 0.0
2018-Jun-14 13:26N 51°16' E 004°21'0 0.0
2018-Jun-14 12:59N 51°16' E 004°21'0 0.0
2018-Jun-14 12:28N 51°16' E 004°21'0 0.0
2018-Jun-14 11:58N 51°16' E 004°21'0 0.0
2018-Jun-14 11:28N 51°16' E 004°21'0 0.0
2018-Jun-14 10:58N 51°16' E 004°21'0 0.0
2018-Jun-14 10:25N 51°16' E 004°21'0 0.0
2018-Jun-14 09:58N 51°16' E 004°21'0 0.0
2018-Jun-14 09:28N 51°16' E 004°21'0 0.0
2018-Jun-14 08:52N 51°16' E 004°21'0 0.0
2018-Jun-14 08:28N 51°16' E 004°21'0 0.0
2018-Jun-14 07:58N 51°16' E 004°21'0 0.0
2018-Jun-14 07:28N 51°16' E 004°21'0 0.0
2018-Jun-14 06:55N 51°16' E 004°21'0 0.0
2018-Jun-14 06:28N 51°16' E 004°21'0 0.0
2018-Jun-14 05:58N 51°16' E 004°21'0 0.0
2018-Jun-14 05:28N 51°16' E 004°21'0 0.0
2018-Jun-14 04:55N 51°16' E 004°21'0 0.0
2018-Jun-14 04:28N 51°16' E 004°21'0 0.0
2018-Jun-14 03:58N 51°16' E 004°21'0 0.0
2018-Jun-14 03:25N 51°16' E 004°21'0 0.0
2018-Jun-14 02:58N 51°16' E 004°21'0 0.0
2018-Jun-14 02:28N 51°16' E 004°21'0 0.0
2018-Jun-14 01:55N 51°16' E 004°21'0 0.0
2018-Jun-14 01:28N 51°16' E 004°21'0 0.0
2018-Jun-14 00:55N 51°16' E 004°21'0 0.0
2018-Jun-14 00:22N 51°16' E 004°21'0 0.0
2018-Jun-13 23:58N 51°16' E 004°21'0 0.0
2018-Jun-13 23:28N 51°16' E 004°21'0 0.0
2018-Jun-13 22:58N 51°16' E 004°21'0 0.0
2018-Jun-13 22:28N 51°16' E 004°21'0 0.0
2018-Jun-13 21:58N 51°16' E 004°21'0 0.0
2018-Jun-13 21:28N 51°16' E 004°21'0 0.0
2018-Jun-13 20:58N 51°16' E 004°21'0 0.0
2018-Jun-13 20:25N 51°16' E 004°21'0 0.0
2018-Jun-13 19:58N 51°16' E 004°21'0 0.0
2018-Jun-13 19:28N 51°16' E 004°21'0 0.0
2018-Jun-13 18:58N 51°16' E 004°21'0 0.0
2018-Jun-13 18:28N 51°16' E 004°21'0 0.0
2018-Jun-13 17:58N 51°16' E 004°21'0 0.0
2018-Jun-13 17:28N 51°16' E 004°21'0 0.0
2018-Jun-13 16:58N 51°16' E 004°21'0 0.0
2018-Jun-13 16:28N 51°16' E 004°21'0 0.0
2018-Jun-13 15:58N 51°16' E 004°21'0 0.0
2018-Jun-13 15:28N 51°16' E 004°21'0 0.0
2018-Jun-13 14:58N 51°16' E 004°21'0 0.0
2018-Jun-13 14:28N 51°16' E 004°21'0 0.0
2018-Jun-13 13:49N 51°16' E 004°21'0 0.0
2018-Jun-13 13:28N 51°16' E 004°21'0 0.0
2018-Jun-13 12:52N 51°16' E 004°21'0 0.0
2018-Jun-13 12:28N 51°16' E 004°21'0 0.0
2018-Jun-13 11:58N 51°16' E 004°21'0 0.0
2018-Jun-13 11:28N 51°16' E 004°21'0 0.0
2018-Jun-13 10:58N 51°16' E 004°21'0 0.0
2018-Jun-13 10:28N 51°16' E 004°21'0 0.0
2018-Jun-13 09:58N 51°16' E 004°21'0 0.0
2018-Jun-13 09:25N 51°16' E 004°21'0 0.0
2018-Jun-13 08:58N 51°16' E 004°21'0 0.0
2018-Jun-13 08:28N 51°16' E 004°21'0 0.0
2018-Jun-13 07:58N 51°16' E 004°21'0 0.0
2018-Jun-13 07:25N 51°16' E 004°21'0 0.0
2018-Jun-13 06:58N 51°16' E 004°21'0 0.0
2018-Jun-13 06:28N 51°16' E 004°21'0 0.0
2018-Jun-13 05:58N 51°16' E 004°21'0 0.0
2018-Jun-13 05:28N 51°16' E 004°21'0 0.0
2018-Jun-13 04:58N 51°16' E 004°21'0 0.0
2018-Jun-13 04:22N 51°16' E 004°21'0 0.0
2018-Jun-13 03:58N 51°16' E 004°21'0 0.0
2018-Jun-13 03:28N 51°16' E 004°21'0 0.0
2018-Jun-13 02:52N 51°16' E 004°21'0 0.0
2018-Jun-13 02:25N 51°16' E 004°21'0 0.0
2018-Jun-13 01:58N 51°16' E 004°21'0 0.0
2018-Jun-13 01:28N 51°16' E 004°21'0 0.0
2018-Jun-13 00:58N 51°16' E 004°21'0 0.0
2018-Jun-13 00:28N 51°16' E 004°21'0 0.0
2018-Jun-12 23:51N 51°16' E 004°21'0 0.0
2018-Jun-12 23:27N 51°16' E 004°21'0 0.0
2018-Jun-12 23:00N 51°16' E 004°21'0 0.0
2018-Jun-12 22:30N 51°16' E 004°21'0 0.0
2018-Jun-12 22:00N 51°16' E 004°21'0 0.0
2018-Jun-12 21:27N 51°16' E 004°21'0 0.0
2018-Jun-12 20:57N 51°16' E 004°21'0 0.0
2018-Jun-12 20:30N 51°16' E 004°21'0 0.0
2018-Jun-12 20:00N 51°16' E 004°21'0 0.0
2018-Jun-12 19:27N 51°16' E 004°21'0 0.0
2018-Jun-12 19:00N 51°16' E 004°21'0 0.0
2018-Jun-12 18:30N 51°16' E 004°21'  

Dump ship's entire track history